Time;durP1;ratioP1;P1;durP2;ratioP2;P2;SDS_P1;SDS_P2;PMS_P1;PMS_P2;Temp;Humidity;BMP_temperature;BMP_pressure;BME280_temperature;BME280_humidity;BME280_pressure;Samples;Min_cycle;Max_cycle;Signal;HPM_P1;HPM_P2
2022/12/02 00:04:16;;;;;;;25.77;22.87;;;8.40;99.90;;;;;;10334268;28;20721;-79
2022/12/02 00:09:30;;;;;;;27.33;24.40;;;8.40;99.90;;;;;;10340719;28;20199;-80
2022/12/02 00:14:35;;;;;;;28.63;23.37;;;8.40;99.90;;;;;;10339989;28;20257;-80
2022/12/02 00:19:37;;;;;;;27.37;24.50;;;8.40;99.90;;;;;;10324663;28;20766;-81
2022/12/02 00:24:39;;;;;;;29.23;24.67;;;8.50;99.90;;;;;;10305574;28;20200;-80
2022/12/02 00:29:45;;;;;;;26.83;23.93;;;8.50;99.90;;;;;;10344229;28;20277;-80
2022/12/02 00:34:47;;;;;;;27.20;24.30;;;8.50;99.90;;;;;;10328601;28;20241;-80
2022/12/02 00:39:50;;;;;;;26.83;23.93;;;8.50;99.90;;;;;;10363360;28;20230;-80
2022/12/02 00:50:12;;;;;;;28.50;24.40;;;8.50;99.90;;;;;;10345779;28;20215;-79
2022/12/02 00:55:15;;;;;;;32.07;26.63;;;8.50;99.90;;;;;;10330584;28;20254;-80
2022/12/02 01:00:19;;;;;;;29.50;24.70;;;8.40;99.90;;;;;;10330513;28;20222;-80
2022/12/02 01:05:21;;;;;;;30.30;25.50;;;8.40;99.90;;;;;;10358499;28;20254;-79
2022/12/02 01:10:23;;;;;;;30.20;24.70;;;8.40;99.90;;;;;;10383677;23;20226;-84
2022/12/02 01:15:27;;;;;;;27.40;23.73;;;8.40;99.90;;;;;;10391860;28;20202;-89
2022/12/02 01:20:29;;;;;;;27.77;24.80;;;8.40;99.90;;;;;;10351197;28;20467;-84
2022/12/02 01:25:31;;;;;;;29.53;25.80;;;8.40;99.90;;;;;;10357804;28;20771;-85
2022/12/02 01:30:34;;;;;;;28.30;25.00;;;8.40;99.90;;;;;;10357545;28;20309;-85
2022/12/02 01:35:38;;;;;;;29.37;25.03;;;8.40;99.90;;;;;;10345890;28;20202;-85
2022/12/02 01:40:41;;;;;;;27.43;24.53;;;8.40;99.90;;;;;;10354160;28;20623;-84
2022/12/02 01:45:44;;;;;;;30.97;26.63;;;8.40;99.90;;;;;;10353642;28;20207;-85
2022/12/02 01:50:47;;;;;;;27.50;24.50;;;8.30;99.90;;;;;;10353523;28;20261;-85
2022/12/02 01:55:54;;;;;;;29.20;24.90;;;8.30;99.90;;;;;;10369760;28;20738;-85
2022/12/02 02:00:58;;;;;;;28.70;25.00;;;8.40;99.90;;;;;;10367048;28;20241;-85
2022/12/02 02:06:00;;;;;;;29.80;25.57;;;8.40;99.90;;;;;;10340610;28;20256;-84
2022/12/02 02:11:02;;;;;;;29.23;24.87;;;8.40;99.90;;;;;;10370651;28;20260;-85
2022/12/02 02:16:06;;;;;;;32.13;26.47;;;8.40;99.90;;;;;;10343979;28;20194;-85
2022/12/02 02:21:16;;;;;;;27.33;23.17;;;8.30;99.90;;;;;;10354650;28;20207;-85
2022/12/02 02:26:20;;;;;;;28.33;25.07;;;8.40;99.90;;;;;;10371920;28;20293;-85
2022/12/02 02:31:22;;;;;;;27.93;24.67;;;8.30;99.90;;;;;;10355943;28;20218;-85
2022/12/02 02:36:25;;;;;;;31.80;24.90;;;8.30;99.90;;;;;;10343779;28;20199;-82
2022/12/02 02:41:29;;;;;;;31.30;26.50;;;8.30;99.90;;;;;;10361500;28;20695;-85
2022/12/02 02:46:32;;;;;;;27.57;23.23;;;8.30;99.90;;;;;;10358801;28;20260;-82
2022/12/02 02:51:34;;;;;;;28.10;24.80;;;8.30;99.90;;;;;;10350103;28;20750;-85
2022/12/02 02:56:38;;;;;;;27.70;23.80;;;8.30;99.90;;;;;;10366565;28;20655;-83
2022/12/02 03:01:41;;;;;;;29.33;25.90;;;8.30;99.90;;;;;;10369161;28;20221;-86
2022/12/02 03:06:46;;;;;;;27.53;24.43;;;8.30;99.90;;;;;;10383018;28;20231;-83
2022/12/02 03:11:53;;;;;;;27.20;23.33;;;8.30;99.90;;;;;;10364402;28;20702;-83
2022/12/02 03:16:57;;;;;;;27.50;24.50;;;8.30;99.90;;;;;;10383669;28;20183;-82
2022/12/02 03:22:00;;;;;;;29.87;26.67;;;8.30;99.90;;;;;;10335878;28;20219;-82
2022/12/02 03:27:05;;;;;;;27.23;24.13;;;8.30;99.90;;;;;;10345636;28;20597;-82
2022/12/02 03:32:09;;;;;;;32.20;25.27;;;8.30;99.90;;;;;;10362279;28;20269;-82
2022/12/02 03:37:11;;;;;;;29.70;25.07;;;8.30;99.90;;;;;;10377690;28;20669;-82
2022/12/02 03:42:15;;;;;;;29.43;24.93;;;8.30;99.90;;;;;;10345953;28;20609;-83
2022/12/02 03:47:17;;;;;;;31.97;25.37;;;8.30;99.90;;;;;;10378150;28;20626;-84
2022/12/02 03:52:19;;;;;;;28.10;24.30;;;8.30;99.90;;;;;;10345722;28;20211;-84
2022/12/02 03:57:23;;;;;;;31.20;25.53;;;8.30;99.90;;;;;;10361190;28;20289;-82
2022/12/02 04:02:26;;;;;;;28.20;25.10;;;8.30;99.90;;;;;;10350699;28;20576;-83
2022/12/02 04:07:28;;;;;;;31.30;27.87;;;8.20;99.90;;;;;;10361362;28;20202;-82
2022/12/02 04:12:31;;;;;;;26.77;23.80;;;8.20;99.90;;;;;;10338345;28;20767;-83
2022/12/02 04:17:33;;;;;;;28.07;24.67;;;8.20;99.90;;;;;;10373806;28;20477;-83
2022/12/02 04:22:36;;;;;;;27.50;24.30;;;8.20;99.90;;;;;;10337143;28;20215;-83
2022/12/02 04:27:40;;;;;;;28.40;25.17;;;8.20;99.90;;;;;;10320823;28;20203;-84
2022/12/02 04:32:42;;;;;;;31.80;25.80;;;8.20;99.90;;;;;;10377516;28;20662;-82
2022/12/02 04:37:44;;;;;;;28.80;25.00;;;8.20;99.90;;;;;;10321680;28;20208;-82
2022/12/02 04:42:47;;;;;;;31.60;26.07;;;8.20;99.90;;;;;;10320865;28;20249;-82
2022/12/02 04:47:49;;;;;;;29.57;26.10;;;8.20;99.90;;;;;;10374958;28;20202;-82
2022/12/02 04:52:51;;;;;;;30.80;25.77;;;8.20;99.90;;;;;;10323321;28;20298;-82
2022/12/02 04:57:55;;;;;;;29.40;25.43;;;8.20;99.90;;;;;;10365825;28;20523;-83
2022/12/02 05:02:58;;;;;;;28.40;25.33;;;8.20;99.90;;;;;;10336742;28;20303;-83
2022/12/02 05:08:00;;;;;;;29.20;25.17;;;8.30;99.90;;;;;;10362512;28;20195;-82
2022/12/02 05:13:04;;;;;;;29.90;25.50;;;8.20;99.90;;;;;;10378813;28;20253;-82
2022/12/02 05:18:06;;;;;;;30.37;27.00;;;8.20;99.90;;;;;;10411491;28;20251;-83
2022/12/02 05:23:08;;;;;;;30.90;25.23;;;8.20;99.90;;;;;;10381925;28;20250;-82
2022/12/02 05:28:11;;;;;;;30.40;25.97;;;8.20;99.90;;;;;;10337963;28;20224;-84
2022/12/02 05:33:13;;;;;;;34.33;26.10;;;8.20;99.90;;;;;;10358806;28;20252;-83
2022/12/02 05:38:15;;;;;;;33.87;26.37;;;8.20;99.90;;;;;;10347394;28;20698;-83
2022/12/02 05:43:20;;;;;;;30.70;24.90;;;8.20;99.90;;;;;;10346826;28;20228;-83
2022/12/02 05:48:25;;;;;;;30.53;26.10;;;8.20;99.90;;;;;;10363951;28;20195;-83
2022/12/02 05:53:28;;;;;;;33.90;26.50;;;8.20;99.90;;;;;;10380929;28;20310;-82
2022/12/02 05:58:32;;;;;;;33.37;27.37;;;8.20;99.90;;;;;;10363018;28;20199;-83
2022/12/02 06:03:34;;;;;;;33.40;27.23;;;8.20;99.90;;;;;;10344305;28;20245;-82
2022/12/02 06:08:36;;;;;;;29.43;24.43;;;8.20;99.90;;;;;;10352939;28;20265;-84
2022/12/02 06:13:40;;;;;;;30.37;25.80;;;8.20;99.90;;;;;;10376646;28;20764;-84
2022/12/02 06:18:42;;;;;;;32.70;27.57;;;8.20;99.90;;;;;;10353816;28;20202;-85
2022/12/02 06:23:47;;;;;;;32.37;26.23;;;8.20;99.90;;;;;;10356136;28;20229;-85
2022/12/02 06:28:56;;;;;;;31.27;24.97;;;8.20;99.90;;;;;;10348982;28;20207;-84
2022/12/02 06:34:00;;;;;;;33.33;26.70;;;8.10;99.90;;;;;;10344362;28;20227;-84
2022/12/02 06:39:19;;;;;;;29.13;25.10;;;8.10;99.90;;;;;;10346094;28;20203;-84
2022/12/02 06:49:44;;;;;;;33.60;25.20;;;8.00;99.90;;;;;;10330530;28;20192;-83
2022/12/02 06:54:46;;;;;;;32.47;25.10;;;8.00;99.90;;;;;;10352811;28;20268;-88
2022/12/02 06:59:52;;;;;;;32.73;26.07;;;8.00;99.90;;;;;;10368435;28;20218;-85
2022/12/02 07:04:55;;;;;;;33.83;26.90;;;8.00;99.90;;;;;;10367230;28;20190;-83
2022/12/02 07:10:02;;;;;;;29.97;25.97;;;8.00;99.90;;;;;;10366469;28;20230;-84
2022/12/02 07:15:22;;;;;;;32.30;27.67;;;8.10;99.90;;;;;;10355665;28;20214;-84
2022/12/02 07:20:31;;;;;;;30.60;24.70;;;8.10;99.90;;;;;;10386472;28;20218;-82
2022/12/02 07:25:38;;;;;;;29.43;23.60;;;8.10;99.90;;;;;;10355713;28;20193;-83
2022/12/02 07:30:42;;;;;;;32.40;27.80;;;8.10;99.90;;;;;;10354790;28;20238;-83
2022/12/02 07:35:44;;;;;;;33.97;27.20;;;8.10;99.90;;;;;;10332106;28;20225;-83
2022/12/02 07:40:47;;;;;;;32.67;26.30;;;8.10;99.90;;;;;;10333696;28;20218;-83
2022/12/02 07:45:50;;;;;;;33.37;26.37;;;8.20;99.90;;;;;;10364569;28;20199;-83
2022/12/02 07:50:52;;;;;;;34.50;27.23;;;8.20;99.90;;;;;;10393077;28;20691;-84
2022/12/02 07:55:54;;;;;;;39.60;31.70;;;8.10;99.90;;;;;;10390510;28;20229;-84
2022/12/02 08:00:58;;;;;;;36.43;28.00;;;8.10;99.90;;;;;;10359700;23;20309;-77
2022/12/02 08:06:00;;;;;;;37.30;28.83;;;8.10;99.90;;;;;;10342382;28;20714;-76
2022/12/02 08:11:02;;;;;;;40.80;29.03;;;8.10;99.90;;;;;;10338048;28;20219;-79
2022/12/02 08:16:10;;;;;;;37.67;28.57;;;8.10;99.90;;;;;;10308470;28;20266;-75
2022/12/02 08:21:12;;;;;;;40.83;30.90;;;8.10;99.90;;;;;;10331094;28;20662;-79
2022/12/02 08:26:14;;;;;;;37.80;29.83;;;8.10;99.90;;;;;;10330244;28;20195;-77
2022/12/02 08:31:18;;;;;;;40.57;30.50;;;8.10;99.90;;;;;;10329795;28;20584;-77
2022/12/02 08:36:21;;;;;;;40.43;30.70;;;8.10;99.90;;;;;;10319454;28;20230;-77
2022/12/02 08:41:23;;;;;;;37.53;28.67;;;8.00;99.90;;;;;;10333154;28;20642;-76
2022/12/02 08:46:27;;;;;;;39.60;29.13;;;8.00;99.90;;;;;;10329982;28;20203;-76
2022/12/02 08:51:29;;;;;;;34.27;28.17;;;8.00;99.90;;;;;;10296800;28;20219;-78
2022/12/02 08:56:31;;;;;;;35.03;28.87;;;8.00;99.90;;;;;;10322436;28;20207;-79
2022/12/02 09:01:35;;;;;;;36.17;29.60;;;8.00;99.90;;;;;;10315244;28;20687;-79
2022/12/02 09:06:37;;;;;;;38.33;30.00;;;8.00;99.90;;;;;;10315566;28;20291;-77
2022/12/02 09:11:39;;;;;;;36.23;28.27;;;7.90;99.90;;;;;;10331672;28;20215;-78
2022/12/02 09:16:43;;;;;;;34.47;27.70;;;7.90;99.90;;;;;;10332817;28;20211;-80
2022/12/02 09:21:45;;;;;;;36.43;26.50;;;7.80;99.90;;;;;;10316857;28;20278;-79
2022/12/02 09:26:47;;;;;;;34.17;26.47;;;7.80;99.90;;;;;;10339668;28;20257;-78
2022/12/02 09:31:50;;;;;;;36.40;28.17;;;7.80;99.90;;;;;;10323586;28;20261;-78
2022/12/02 09:36:52;;;;;;;28.43;21.87;;;7.70;99.90;;;;;;10319299;28;20233;-78
2022/12/02 09:41:55;;;;;;;24.10;20.53;;;7.80;99.90;;;;;;10313154;28;20506;-79
2022/12/02 09:46:58;;;;;;;24.70;20.37;;;7.80;99.90;;;;;;10317247;28;20225;-79
2022/12/02 09:52:03;;;;;;;23.00;20.13;;;7.70;99.90;;;;;;10338881;28;20215;-78
2022/12/02 09:57:09;;;;;;;23.60;19.73;;;7.80;99.90;;;;;;10342266;28;20779;-79
2022/12/02 10:02:24;;;;;;;21.67;18.40;;;7.70;99.90;;;;;;10335606;28;20557;-79
2022/12/02 10:07:26;;;;;;;22.73;19.93;;;7.70;99.90;;;;;;10320019;28;20314;-78
2022/12/02 10:12:28;;;;;;;19.67;17.60;;;7.70;99.90;;;;;;10302019;28;20218;-78
2022/12/02 10:17:32;;;;;;;22.60;18.87;;;7.70;99.90;;;;;;10318008;28;20301;-78
2022/12/02 10:23:15;;;;;;;22.50;18.20;;;7.70;99.90;;;;;;10321606;28;20290;-78
2022/12/02 10:28:27;;;;;;;19.70;17.60;;;7.70;99.90;;;;;;10294976;28;20263;-78
2022/12/02 10:33:31;;;;;;;22.80;18.73;;;7.70;99.90;;;;;;10323959;28;20298;-79
2022/12/02 10:38:40;;;;;;;23.37;16.73;;;7.70;99.90;;;;;;10344938;28;20290;-78
2022/12/02 10:43:44;;;;;;;25.60;18.30;;;7.70;99.90;;;;;;10322295;28;20195;-78
2022/12/02 10:48:46;;;;;;;19.90;16.70;;;7.70;99.90;;;;;;10326633;28;20223;-79
2022/12/02 10:53:56;;;;;;;19.23;16.30;;;7.70;99.90;;;;;;10348401;28;20223;-79
2022/12/02 10:59:00;;;;;;;16.10;13.73;;;7.80;99.90;;;;;;10346064;28;20687;-78
2022/12/02 11:04:03;;;;;;;17.37;15.50;;;7.70;99.90;;;;;;10340698;28;20571;-79
2022/12/02 11:09:13;;;;;;;18.37;15.63;;;7.80;99.90;;;;;;10278183;28;20266;-78
2022/12/02 11:14:53;;;;;;;16.77;14.97;;;7.80;99.90;;;;;;10342339;28;20226;-78
2022/12/02 11:20:33;;;;;;;16.60;14.87;;;7.80;99.90;;;;;;10297544;28;20250;-78
2022/12/02 11:26:00;;;;;;;16.17;13.30;;;7.80;99.90;;;;;;10318676;28;20223;-78
2022/12/02 11:31:23;;;;;;;15.80;13.90;;;7.90;99.90;;;;;;10321761;28;20250;-79
2022/12/02 11:36:27;;;;;;;13.93;12.60;;;7.90;99.90;;;;;;10319963;28;20219;-78
2022/12/02 11:41:46;;;;;;;16.47;13.30;;;7.90;99.90;;;;;;10333685;28;20219;-77
2022/12/02 11:46:49;;;;;;;14.33;12.77;;;7.90;99.90;;;;;;10315755;28;20210;-78
2022/12/02 11:51:52;;;;;;;12.90;11.70;;;7.80;99.90;;;;;;10299122;28;20210;-78
2022/12/02 11:56:56;;;;;;;14.07;12.60;;;7.80;99.90;;;;;;10332884;28;20201;-78
2022/12/02 12:02:17;;;;;;;13.93;12.60;;;7.90;99.90;;;;;;10300765;28;20195;-80
2022/12/02 12:07:19;;;;;;;13.80;12.50;;;7.90;99.90;;;;;;10303558;28;20270;-80
2022/12/02 12:12:23;;;;;;;13.80;12.33;;;7.90;99.90;;;;;;10337589;28;20254;-79
2022/12/02 12:17:34;;;;;;;14.07;12.07;;;7.90;99.90;;;;;;10336916;28;20219;-77
2022/12/02 12:22:36;;;;;;;14.07;12.57;;;7.90;99.90;;;;;;10309177;28;20244;-78
2022/12/02 12:27:39;;;;;;;11.70;10.60;;;7.90;99.90;;;;;;10343471;28;20247;-79
2022/12/02 12:32:41;;;;;;;15.20;11.73;;;7.90;99.90;;;;;;10344093;28;20207;-78
2022/12/02 12:37:44;;;;;;;14.00;11.50;;;7.90;99.90;;;;;;10321430;28;20699;-77
2022/12/02 12:42:47;;;;;;;38.67;14.03;;;7.90;99.90;;;;;;10314273;28;20277;-78
2022/12/02 12:47:49;;;;;;;12.27;10.97;;;7.80;99.90;;;;;;10308234;28;20309;-79
2022/12/02 12:52:51;;;;;;;11.00;10.00;;;7.80;99.90;;;;;;10291643;28;20222;-78
2022/12/02 12:57:55;;;;;;;10.40;9.40;;;7.80;99.90;;;;;;10322744;28;20609;-78
2022/12/02 13:02:58;;;;;;;10.97;9.70;;;7.80;99.90;;;;;;10355110;28;20202;-77
2022/12/02 13:08:00;;;;;;;9.67;8.03;;;7.80;99.90;;;;;;10344372;28;20226;-78
2022/12/02 13:13:03;;;;;;;9.67;8.77;;;7.70;99.90;;;;;;10319889;28;20310;-78
2022/12/02 13:18:06;;;;;;;10.57;9.67;;;7.70;99.90;;;;;;10334155;28;20246;-78
2022/12/02 13:23:08;;;;;;;9.93;9.07;;;7.70;99.90;;;;;;10312177;28;20270;-78
2022/12/02 13:28:12;;;;;;;9.33;8.53;;;7.70;99.90;;;;;;10335807;28;20234;-78
2022/12/02 13:33:14;;;;;;;10.03;9.23;;;7.70;99.90;;;;;;10304553;28;20207;-77
2022/12/02 13:38:16;;;;;;;8.87;7.97;;;7.70;99.90;;;;;;10335225;28;20217;-77
2022/12/02 13:43:20;;;;;;;8.30;7.50;;;7.60;99.90;;;;;;10320790;28;20219;-77
2022/12/02 13:48:22;;;;;;;8.50;7.77;;;7.60;99.90;;;;;;10336614;28;20229;-77
2022/12/02 13:53:24;;;;;;;10.77;7.90;;;7.60;99.90;;;;;;10340722;28;20227;-76
2022/12/02 13:58:27;;;;;;;10.53;8.57;;;7.60;99.90;;;;;;10340507;28;20235;-76
2022/12/02 14:03:29;;;;;;;9.40;7.80;;;7.50;99.90;;;;;;10338843;28;20200;-77
2022/12/02 14:08:32;;;;;;;8.63;7.90;;;7.50;99.90;;;;;;10338155;28;20216;-78
2022/12/02 14:13:35;;;;;;;9.10;8.20;;;7.50;99.90;;;;;;10338249;28;20270;-77
2022/12/02 14:18:37;;;;;;;11.30;8.27;;;7.50;99.90;;;;;;10337145;28;20599;-78
2022/12/02 14:23:39;;;;;;;8.97;8.27;;;7.60;99.90;;;;;;10338415;28;20624;-78
2022/12/02 14:28:43;;;;;;;8.87;7.93;;;7.60;99.90;;;;;;10335107;28;20746;-77
2022/12/02 14:33:45;;;;;;;12.07;8.60;;;7.60;99.90;;;;;;10303354;28;20701;-76
2022/12/02 14:38:47;;;;;;;9.27;7.33;;;7.60;99.90;;;;;;10334199;28;20218;-76
2022/12/02 14:43:51;;;;;;;8.93;8.23;;;7.60;99.90;;;;;;10301146;28;20198;-79
2022/12/02 14:48:54;;;;;;;10.00;9.10;;;7.70;99.90;;;;;;10317362;28;20246;-77
2022/12/02 14:53:56;;;;;;;8.60;7.90;;;7.70;99.90;;;;;;10317400;28;20242;-77
2022/12/02 14:58:59;;;;;;;7.83;7.13;;;7.80;99.90;;;;;;10316591;28;20227;-77
2022/12/02 15:04:01;;;;;;;9.13;8.43;;;7.80;99.90;;;;;;10333386;28;20303;-77
2022/12/02 15:09:04;;;;;;;8.93;8.23;;;7.80;99.90;;;;;;10335159;28;20215;-77
2022/12/02 15:14:08;;;;;;;8.00;7.40;;;7.80;99.90;;;;;;10335507;28;20652;-80
2022/12/02 15:19:10;;;;;;;9.80;9.00;;;7.80;99.90;;;;;;10335824;28;20342;-77
2022/12/02 15:24:12;;;;;;;10.20;9.37;;;7.80;99.90;;;;;;10332829;28;20188;-77
2022/12/02 15:29:15;;;;;;;9.53;8.70;;;7.80;99.90;;;;;;10332342;28;20269;-77
2022/12/02 15:34:18;;;;;;;11.10;10.00;;;7.80;99.90;;;;;;10334299;28;20266;-77
2022/12/02 15:39:20;;;;;;;9.67;8.83;;;7.70;99.90;;;;;;10315172;28;20227;-79
2022/12/02 15:44:24;;;;;;;8.60;7.90;;;7.70;99.90;;;;;;10316676;28;20202;-78
2022/12/02 15:49:26;;;;;;;10.60;9.70;;;7.70;99.90;;;;;;10317165;28;20270;-78
2022/12/02 15:54:30;;;;;;;10.13;9.23;;;7.70;99.90;;;;;;10336573;28;20207;-78
2022/12/02 15:59:33;;;;;;;10.10;9.30;;;7.70;99.90;;;;;;10335781;28;20233;-80
2022/12/02 16:04:35;;;;;;;9.93;9.13;;;7.70;99.90;;;;;;10302570;28;20201;-81
2022/12/02 16:09:38;;;;;;;10.37;9.40;;;7.70;99.90;;;;;;10304176;28;20669;-81
2022/12/02 16:14:49;;;;;;;10.60;9.70;;;7.60;99.90;;;;;;10536352;27;20872;-79
2022/12/02 16:19:51;;;;;;;9.30;8.40;;;7.60;99.90;;;;;;10534532;28;20220;-78
2022/12/02 16:24:53;;;;;;;11.47;10.40;;;7.60;99.90;;;;;;10593491;22;20219;-81
2022/12/02 16:29:57;;;;;;;11.13;10.07;;;7.60;99.90;;;;;;10588484;28;20667;-84
2022/12/02 16:34:59;;;;;;;10.70;9.70;;;7.60;99.90;;;;;;10580787;28;20721;-84
2022/12/02 16:40:01;;;;;;;11.00;10.07;;;7.60;99.90;;;;;;10564141;28;20200;-81
2022/12/02 16:45:05;;;;;;;10.13;9.33;;;7.50;99.90;;;;;;10563147;28;20213;-81
2022/12/02 16:50:08;;;;;;;11.23;10.23;;;7.50;99.90;;;;;;10559217;28;20643;-83
2022/12/02 16:55:13;;;;;;;11.53;10.57;;;7.60;99.90;;;;;;10568018;28;20226;-81
2022/12/02 17:00:17;;;;;;;11.97;10.77;;;7.60;99.90;;;;;;10534472;28;20188;-81
2022/12/02 17:05:20;;;;;;;13.20;12.00;;;7.60;99.90;;;;;;10574303;28;20291;-81
2022/12/02 17:10:22;;;;;;;12.90;11.80;;;7.60;99.90;;;;;;10531972;28;20208;-82
2022/12/02 17:15:25;;;;;;;12.90;11.70;;;7.60;99.90;;;;;;10564191;28;20283;-82
2022/12/02 17:20:27;;;;;;;12.10;11.00;;;7.60;99.90;;;;;;10538291;28;20212;-81
2022/12/02 17:25:29;;;;;;;12.47;11.17;;;7.50;99.90;;;;;;10549010;28;20266;-81
2022/12/02 17:30:32;;;;;;;12.50;11.40;;;7.50;99.90;;;;;;10507143;28;20209;-80
2022/12/02 17:35:34;;;;;;;13.37;12.27;;;7.50;99.90;;;;;;10547283;28;20299;-81
2022/12/02 17:40:37;;;;;;;12.70;11.70;;;7.50;99.90;;;;;;10504416;28;20640;-80
2022/12/02 17:45:40;;;;;;;13.77;12.60;;;7.40;99.90;;;;;;10528101;28;20229;-81
2022/12/02 17:50:42;;;;;;;12.83;11.73;;;7.40;99.90;;;;;;10540063;28;20215;-80
2022/12/02 17:55:44;;;;;;;14.53;13.23;;;7.40;99.90;;;;;;10540603;28;20770;-79
2022/12/02 18:00:47;;;;;;;15.33;14.13;;;7.30;99.90;;;;;;10505160;28;20188;-82
2022/12/02 18:05:49;;;;;;;15.83;14.63;;;7.30;99.90;;;;;;10545737;28;20288;-81
2022/12/02 18:10:52;;;;;;;17.07;15.67;;;7.20;99.90;;;;;;10510867;28;20234;-81
2022/12/02 18:15:55;;;;;;;15.47;14.37;;;7.20;99.90;;;;;;10492364;28;20208;-81
2022/12/02 18:20:57;;;;;;;15.93;14.83;;;7.10;99.90;;;;;;10496151;28;20629;-80
2022/12/02 18:25:59;;;;;;;16.40;15.13;;;7.10;99.90;;;;;;10549264;28;20258;-82
2022/12/02 18:31:04;;;;;;;16.70;15.50;;;7.10;99.90;;;;;;10509309;28;20212;-81
2022/12/02 18:36:06;;;;;;;17.23;15.93;;;7.10;99.90;;;;;;10539907;28;20216;-81
2022/12/02 18:41:08;;;;;;;18.00;16.70;;;7.10;99.90;;;;;;10508369;28;20197;-81
2022/12/02 18:46:12;;;;;;;17.10;15.90;;;7.00;99.90;;;;;;10487469;28;20688;-81
2022/12/02 18:51:14;;;;;;;18.03;16.70;;;7.00;99.90;;;;;;10541489;28;20268;-80
2022/12/02 18:56:16;;;;;;;17.70;16.30;;;7.00;99.90;;;;;;10551946;28;20216;-80
2022/12/02 19:01:19;;;;;;;17.10;15.90;;;7.10;99.90;;;;;;10509762;28;20189;-80
2022/12/02 19:06:21;;;;;;;14.07;13.00;;;7.00;99.90;;;;;;10537957;28;20227;-82
2022/12/02 19:11:23;;;;;;;16.80;15.60;;;7.10;99.90;;;;;;10509756;28;20216;-82
2022/12/02 19:16:27;;;;;;;17.77;16.27;;;7.00;99.90;;;;;;10535225;28;20223;-81
2022/12/02 19:21:29;;;;;;;16.07;14.83;;;7.00;99.90;;;;;;10513147;28;20193;-81
2022/12/02 19:26:31;;;;;;;14.93;13.83;;;6.90;99.90;;;;;;10538415;28;20326;-81
2022/12/02 19:31:34;;;;;;;14.93;13.73;;;6.90;99.90;;;;;;10511398;28;20387;-82
2022/12/02 19:36:37;;;;;;;15.53;14.27;;;6.80;99.90;;;;;;10535276;28;20216;-82
2022/12/02 19:41:39;;;;;;;15.03;13.93;;;6.80;99.90;;;;;;10512824;28;20257;-82
2022/12/02 19:46:42;;;;;;;14.43;13.40;;;6.80;99.90;;;;;;10528352;28;20219;-81
2022/12/02 19:51:44;;;;;;;13.10;12.10;;;6.80;99.90;;;;;;10518777;28;20215;-82
2022/12/02 19:56:46;;;;;;;14.83;13.63;;;6.70;99.90;;;;;;10516916;28;20227;-81
2022/12/02 20:01:50;;;;;;;14.23;13.23;;;6.80;99.90;;;;;;10539890;28;20191;-81
2022/12/02 20:06:52;;;;;;;16.83;15.40;;;6.80;99.90;;;;;;10523461;28;20223;-79
2022/12/02 20:11:54;;;;;;;13.00;12.00;;;6.80;99.90;;;;;;10534839;28;20646;-80
2022/12/02 20:16:57;;;;;;;14.10;12.97;;;6.80;99.90;;;;;;10519694;28;20633;-81
2022/12/02 20:21:59;;;;;;;14.50;13.40;;;6.80;99.90;;;;;;10517411;28;20192;-82
2022/12/02 20:27:01;;;;;;;15.33;14.13;;;6.90;99.90;;;;;;10532763;28;20223;-81
2022/12/02 20:32:05;;;;;;;14.00;12.90;;;6.90;99.90;;;;;;10528977;28;20201;-82
2022/12/02 20:37:07;;;;;;;14.03;13.03;;;7.00;99.90;;;;;;10522902;28;20200;-81
2022/12/02 20:42:09;;;;;;;14.87;13.77;;;7.00;99.90;;;;;;10515445;28;20196;-82
2022/12/02 20:47:13;;;;;;;13.37;12.27;;;7.00;99.90;;;;;;10491319;28;20219;-81
2022/12/02 20:52:15;;;;;;;14.40;13.30;;;7.10;99.90;;;;;;10517449;28;20356;-78
2022/12/02 20:57:17;;;;;;;13.07;12.03;;;7.10;99.90;;;;;;10519483;28;20192;-82
2022/12/02 21:02:21;;;;;;;14.30;13.30;;;7.10;99.90;;;;;;10515048;28;20195;-82
2022/12/02 21:07:23;;;;;;;13.03;12.03;;;7.10;99.90;;;;;;10500052;28;20193;-78
2022/12/02 21:12:25;;;;;;;15.90;14.63;;;7.20;99.90;;;;;;10520475;28;20224;-79
2022/12/02 21:17:29;;;;;;;14.60;13.30;;;7.20;99.90;;;;;;10524888;28;20249;-79
2022/12/02 21:22:31;;;;;;;12.50;11.50;;;7.20;99.90;;;;;;10541085;28;20208;-79
2022/12/02 21:27:33;;;;;;;11.77;10.87;;;7.20;99.90;;;;;;10516203;28;20199;-82
2022/12/02 21:32:36;;;;;;;13.73;12.63;;;7.20;99.90;;;;;;10503714;28;20254;-82
2022/12/02 21:37:39;;;;;;;14.70;13.40;;;7.30;99.90;;;;;;10502594;28;20234;-79
2022/12/02 21:42:41;;;;;;;12.47;11.43;;;7.30;99.90;;;;;;10497526;28;20224;-81
2022/12/02 21:47:50;;;;;;;17.63;16.00;;;7.30;99.90;;;;;;10464345;28;20201;-79
2022/12/02 21:52:59;;;;;;;21.83;19.67;;;7.30;99.90;;;;;;10491957;28;20407;-80
2022/12/02 21:58:08;;;;;;;21.20;18.87;;;7.40;99.90;;;;;;10479957;28;20197;-79
2022/12/02 22:03:21;;;;;;;20.60;18.47;;;7.30;99.90;;;;;;10494152;28;20213;-81
2022/12/02 22:08:25;;;;;;;20.07;17.97;;;7.40;99.90;;;;;;10458464;28;20363;-79
2022/12/02 22:13:27;;;;;;;20.93;18.87;;;7.40;99.90;;;;;;10503717;28;20216;-78
2022/12/02 22:18:32;;;;;;;21.20;19.00;;;7.40;99.90;;;;;;10497513;28;20205;-78
2022/12/02 22:23:37;;;;;;;23.70;21.27;;;7.50;99.90;;;;;;10515150;28;20294;-80
2022/12/02 22:28:40;;;;;;;22.27;20.07;;;7.50;99.90;;;;;;10481629;28;20201;-80
2022/12/02 22:33:44;;;;;;;22.23;20.10;;;7.50;99.90;;;;;;10484315;28;20775;-80
2022/12/02 22:38:46;;;;;;;21.63;19.10;;;7.60;99.90;;;;;;10486562;28;20221;-79
2022/12/02 22:43:48;;;;;;;23.33;20.93;;;7.50;99.90;;;;;;10481167;28;20221;-79
2022/12/02 22:48:51;;;;;;;37.87;24.40;;;7.50;99.90;;;;;;10470093;28;20209;-79
2022/12/02 22:53:54;;;;;;;71.83;33.87;;;7.50;99.90;;;;;;10474658;28;20701;-80
2022/12/02 22:58:57;;;;;;;30.20;23.40;;;7.50;99.90;;;;;;10467219;28;20198;-80
2022/12/02 23:04:00;;;;;;;36.03;24.97;;;7.40;99.90;;;;;;10481272;28;20206;-80
2022/12/02 23:09:02;;;;;;;24.43;21.90;;;7.40;99.90;;;;;;10463577;28;20209;-80
2022/12/02 23:14:05;;;;;;;26.80;23.43;;;7.40;99.90;;;;;;10491119;28;20223;-80
2022/12/02 23:19:09;;;;;;;24.60;22.00;;;7.40;99.90;;;;;;10463640;28;20197;-80
2022/12/02 23:24:11;;;;;;;26.17;23.47;;;7.30;99.90;;;;;;10493985;28;20227;-81
2022/12/02 23:29:14;;;;;;;29.83;26.40;;;7.20;99.90;;;;;;10487721;28;20199;-80
2022/12/02 23:34:17;;;;;;;26.30;23.50;;;7.10;99.90;;;;;;10500694;28;20215;-80
2022/12/02 23:39:19;;;;;;;28.10;25.10;;;7.00;99.90;;;;;;10520385;28;20218;-80
2022/12/02 23:44:21;;;;;;;27.80;25.00;;;7.00;99.90;;;;;;10498856;28;20591;-79
2022/12/02 23:49:24;;;;;;;26.90;24.00;;;7.00;99.90;;;;;;10496389;28;20318;-80
2022/12/02 23:54:26;;;;;;;27.47;24.50;;;6.90;99.90;;;;;;10513862;28;20265;-79
2022/12/02 23:59:28;;;;;;;26.33;23.40;;;6.80;99.90;;;;;;10517433;28;20197;-79
